Time;durP1;ratioP1;P1;durP2;ratioP2;P2;SDS_P1;SDS_P2;PMS_P1;PMS_P2;Temp;Humidity;BMP_temperature;BMP_pressure;BME280_temperature;BME280_humidity;BME280_pressure;Samples;Min_cycle;Max_cycle;Signal;HPM_P1;HPM_P2
2024/01/18 00:01:13;;;;;;;20.77;12.68;;;;;;;;;;5070802;28;20028;-77
2024/01/18 00:03:39;;;;;;;22.10;13.00;;;;;;;;;;5080147;28;20028;-78
2024/01/18 00:06:05;;;;;;;24.92;13.90;;;;;;;;;;5070177;28;20075;-77
2024/01/18 00:08:30;;;;;;;26.88;14.77;;;;;;;;;;5069789;28;20039;-77
2024/01/18 00:10:55;;;;;;;23.60;14.02;;;;;;;;;;5070152;28;20050;-77
2024/01/18 00:13:20;;;;;;;25.38;14.98;;;;;;;;;;5071273;28;20035;-77
2024/01/18 00:15:45;;;;;;;23.90;13.50;;;;;;;;;;5070281;28;20036;-77
2024/01/18 00:18:11;;;;;;;23.98;14.23;;;;;;;;;;5068592;28;20029;-77
2024/01/18 00:20:36;;;;;;;22.25;13.35;;;;;;;;;;5069797;28;20081;-77
2024/01/18 00:23:01;;;;;;;25.30;14.55;;;;;;;;;;5069651;28;20027;-77
2024/01/18 00:25:26;;;;;;;25.17;14.77;;;;;;;;;;5070147;28;20145;-77
2024/01/18 00:27:51;;;;;;;22.58;13.52;;;;;;;;;;5072293;28;20044;-77
2024/01/18 00:30:18;;;;;;;22.00;13.65;;;;;;;;;;5073177;28;20498;-77
2024/01/18 00:32:43;;;;;;;22.65;13.52;;;;;;;;;;5075874;28;20370;-77
2024/01/18 00:35:08;;;;;;;21.15;12.20;;;;;;;;;;5074166;28;20079;-77
2024/01/18 00:37:33;;;;;;;21.20;12.98;;;;;;;;;;5072791;28;20056;-77
2024/01/18 00:39:59;;;;;;;21.63;12.52;;;;;;;;;;5072872;28;20032;-77
2024/01/18 00:42:24;;;;;;;20.70;12.70;;;;;;;;;;5073716;28;20393;-77
2024/01/18 00:44:49;;;;;;;22.67;13.52;;;;;;;;;;5074341;28;20024;-77
2024/01/18 00:47:14;;;;;;;23.40;12.55;;;;;;;;;;5073371;28;20025;-77
2024/01/18 00:49:40;;;;;;;23.50;13.10;;;;;;;;;;5073241;28;20592;-77
2024/01/18 00:52:05;;;;;;;24.65;14.23;;;;;;;;;;5081183;28;20028;-78
2024/01/18 00:54:30;;;;;;;20.27;12.05;;;;;;;;;;5077380;28;20480;-77
2024/01/18 00:56:55;;;;;;;22.23;13.32;;;;;;;;;;5073559;28;20761;-77
2024/01/18 00:59:20;;;;;;;23.00;13.25;;;;;;;;;;5073586;28;20032;-78
2024/01/18 01:01:46;;;;;;;22.40;13.48;;;;;;;;;;5076645;28;20020;-78
2024/01/18 01:04:11;;;;;;;21.25;12.80;;;;;;;;;;5076698;28;20028;-77
2024/01/18 01:06:36;;;;;;;23.30;14.77;;;;;;;;;;5072857;28;20070;-78
2024/01/18 01:09:02;;;;;;;23.58;13.55;;;;;;;;;;5072740;28;20036;-77
2024/01/18 01:11:27;;;;;;;21.73;13.93;;;;;;;;;;5072010;28;20036;-77
2024/01/18 01:13:53;;;;;;;21.00;12.38;;;;;;;;;;5073445;28;20043;-77
2024/01/18 01:16:19;;;;;;;26.77;16.17;;;;;;;;;;5075384;28;20036;-77
2024/01/18 01:18:44;;;;;;;21.50;12.13;;;;;;;;;;5072950;28;20068;-77
2024/01/18 01:21:09;;;;;;;21.33;11.90;;;;;;;;;;5072875;28;20051;-77
2024/01/18 01:23:40;;;;;;;21.08;12.15;;;;;;;;;;5072086;28;20485;-77
2024/01/18 01:26:05;;;;;;;21.10;12.07;;;;;;;;;;5072623;28;20417;-77
2024/01/18 01:28:30;;;;;;;19.38;11.90;;;;;;;;;;5079559;28;20024;-77
2024/01/18 01:30:56;;;;;;;18.00;11.02;;;;;;;;;;5071681;28;20056;-77
2024/01/18 01:33:21;;;;;;;16.98;10.13;;;;;;;;;;5076718;28;20103;-77
2024/01/18 01:35:46;;;;;;;17.27;10.88;;;;;;;;;;5072517;28;20039;-77
2024/01/18 01:38:11;;;;;;;17.83;11.48;;;;;;;;;;5072065;28;20060;-77
2024/01/18 01:40:36;;;;;;;16.98;11.02;;;;;;;;;;5072225;28;20115;-77
2024/01/18 01:43:01;;;;;;;19.10;10.65;;;;;;;;;;5076929;28;20024;-77
2024/01/18 01:45:27;;;;;;;16.77;9.75;;;;;;;;;;5072939;28;20031;-77
2024/01/18 01:47:52;;;;;;;17.10;9.82;;;;;;;;;;5072287;28;20040;-77
2024/01/18 01:50:17;;;;;;;17.83;10.38;;;;;;;;;;5077884;28;20090;-77
2024/01/18 01:52:43;;;;;;;18.98;10.75;;;;;;;;;;5076961;28;20094;-77
2024/01/18 01:55:09;;;;;;;14.40;9.10;;;;;;;;;;5079552;28;20036;-77
2024/01/18 01:57:36;;;;;;;16.50;10.20;;;;;;;;;;5080266;28;20560;-77
2024/01/18 02:00:02;;;;;;;15.48;9.23;;;;;;;;;;5072002;28;20059;-77
2024/01/18 02:02:35;;;;;;;13.43;7.88;;;;;;;;;;5076052;28;20135;-77
2024/01/18 02:05:00;;;;;;;11.85;6.88;;;;;;;;;;5076801;28;20063;-78
2024/01/18 02:07:26;;;;;;;13.63;8.07;;;;;;;;;;5072278;28;20029;-77
2024/01/18 02:09:51;;;;;;;14.60;8.40;;;;;;;;;;5071762;28;20083;-78
2024/01/18 02:12:17;;;;;;;14.35;8.10;;;;;;;;;;5072095;28;20029;-77
2024/01/18 02:14:42;;;;;;;14.68;8.77;;;;;;;;;;5076548;28;20091;-77
2024/01/18 02:17:07;;;;;;;15.15;8.70;;;;;;;;;;5070630;28;20078;-78
2024/01/18 02:19:34;;;;;;;14.80;7.53;;;;;;;;;;5071968;28;20634;-77
2024/01/18 02:22:00;;;;;;;15.07;7.80;;;;;;;;;;5071987;28;20033;-78
2024/01/18 02:24:31;;;;;;;14.00;7.85;;;;;;;;;;5078886;28;20108;-78
2024/01/18 02:26:56;;;;;;;15.95;8.68;;;;;;;;;;5070699;28;20040;-78
2024/01/18 02:29:21;;;;;;;20.20;11.25;;;;;;;;;;5076257;28;20496;-78
2024/01/18 02:31:46;;;;;;;16.13;9.32;;;;;;;;;;5075048;28;20036;-78
2024/01/18 02:34:14;;;;;;;18.02;9.95;;;;;;;;;;5079728;28;20024;-78
2024/01/18 02:36:39;;;;;;;15.55;9.27;;;;;;;;;;5072404;28;20111;-78
2024/01/18 02:39:04;;;;;;;20.00;12.13;;;;;;;;;;5071815;28;20103;-77
2024/01/18 02:41:29;;;;;;;19.48;10.75;;;;;;;;;;5072115;28;20077;-78
2024/01/18 02:43:56;;;;;;;16.33;9.95;;;;;;;;;;5076345;28;20029;-78
2024/01/18 02:46:21;;;;;;;17.73;10.18;;;;;;;;;;5072273;28;20070;-78
2024/01/18 02:48:46;;;;;;;16.35;9.88;;;;;;;;;;5071174;28;20044;-78
2024/01/18 02:51:11;;;;;;;18.20;10.97;;;;;;;;;;5071721;28;20028;-78
2024/01/18 02:53:36;;;;;;;17.67;10.57;;;;;;;;;;5077444;28;20512;-78
2024/01/18 02:56:02;;;;;;;18.58;12.10;;;;;;;;;;5072273;28;20109;-78
2024/01/18 02:58:27;;;;;;;18.83;10.93;;;;;;;;;;5075141;28;20501;-78
2024/01/18 03:00:52;;;;;;;20.85;11.40;;;;;;;;;;5070483;28;20021;-78
2024/01/18 03:03:19;;;;;;;18.80;11.00;;;;;;;;;;5074249;28;20036;-77
2024/01/18 03:05:44;;;;;;;19.77;11.50;;;;;;;;;;5075190;28;20559;-78
2024/01/18 03:08:09;;;;;;;21.90;11.70;;;;;;;;;;5074567;28;20032;-78
2024/01/18 03:10:34;;;;;;;21.63;11.90;;;;;;;;;;5074153;28;20033;-77
2024/01/18 03:12:59;;;;;;;21.73;13.48;;;;;;;;;;5071005;28;20111;-77
2024/01/18 03:15:25;;;;;;;22.50;13.13;;;;;;;;;;5078695;28;20059;-78
2024/01/18 03:17:50;;;;;;;23.40;11.60;;;;;;;;;;5071439;28;20116;-78
2024/01/18 03:20:15;;;;;;;23.90;13.77;;;;;;;;;;5074918;28;20393;-77
2024/01/18 03:22:40;;;;;;;23.47;12.57;;;;;;;;;;5072618;28;20035;-79
2024/01/18 03:25:06;;;;;;;24.70;12.40;;;;;;;;;;5078937;28;20043;-79
2024/01/18 03:27:31;;;;;;;20.13;11.60;;;;;;;;;;5072328;28;20449;-79
2024/01/18 03:29:57;;;;;;;24.23;13.80;;;;;;;;;;5071848;28;20041;-79
2024/01/18 03:32:22;;;;;;;18.70;12.03;;;;;;;;;;5073318;28;20032;-79
2024/01/18 03:34:47;;;;;;;22.70;12.93;;;;;;;;;;5077835;28;20024;-79
2024/01/18 03:37:12;;;;;;;21.07;12.23;;;;;;;;;;5072382;28;20037;-79
2024/01/18 03:39:37;;;;;;;19.40;11.38;;;;;;;;;;5076676;28;20021;-79
2024/01/18 03:42:03;;;;;;;20.02;10.98;;;;;;;;;;5071405;28;20489;-78
2024/01/18 03:44:28;;;;;;;22.88;12.95;;;;;;;;;;5078427;28;20028;-79
2024/01/18 03:46:53;;;;;;;22.02;12.90;;;;;;;;;;5071435;28;20032;-78
2024/01/18 03:49:19;;;;;;;27.10;13.37;;;;;;;;;;5073415;28;20052;-78
2024/01/18 03:51:45;;;;;;;21.33;13.30;;;;;;;;;;5071122;28;20115;-79
2024/01/18 03:54:10;;;;;;;24.20;13.65;;;;;;;;;;5077739;28;20119;-79
2024/01/18 03:56:35;;;;;;;23.10;14.18;;;;;;;;;;5069897;28;20561;-79
2024/01/18 03:59:01;;;;;;;22.73;13.57;;;;;;;;;;5071649;28;20042;-79
2024/01/18 04:01:30;;;;;;;27.00;14.93;;;;;;;;;;5081849;28;20036;-79
2024/01/18 04:03:55;;;;;;;23.60;13.73;;;;;;;;;;5080261;28;20456;-79
2024/01/18 04:06:20;;;;;;;21.73;12.63;;;;;;;;;;5079801;28;20055;-78
2024/01/18 04:08:45;;;;;;;18.77;11.53;;;;;;;;;;5074108;28;20048;-78
2024/01/18 04:11:10;;;;;;;22.07;11.90;;;;;;;;;;5075992;28;20070;-79
2024/01/18 04:13:36;;;;;;;19.67;11.37;;;;;;;;;;5079396;28;20032;-79
2024/01/18 04:16:01;;;;;;;19.93;11.90;;;;;;;;;;5076856;28;20036;-79
2024/01/18 04:18:26;;;;;;;22.13;12.85;;;;;;;;;;5075014;28;20067;-79
2024/01/18 04:20:52;;;;;;;24.73;12.23;;;;;;;;;;5074965;28;20468;-79
2024/01/18 04:23:19;;;;;;;23.20;14.50;;;;;;;;;;5080677;28;20070;-79
2024/01/18 04:25:44;;;;;;;23.20;14.15;;;;;;;;;;5080085;28;20021;-79
2024/01/18 04:28:09;;;;;;;22.90;14.32;;;;;;;;;;5075350;28;20407;-79
2024/01/18 04:30:35;;;;;;;21.88;12.40;;;;;;;;;;5074695;28;20557;-79
2024/01/18 04:33:00;;;;;;;22.07;13.67;;;;;;;;;;5073421;28;20032;-79
2024/01/18 04:35:25;;;;;;;21.75;14.18;;;;;;;;;;5082192;28;20037;-79
2024/01/18 04:37:50;;;;;;;27.52;15.70;;;;;;;;;;5074113;28;20079;-79
2024/01/18 04:40:15;;;;;;;23.33;13.32;;;;;;;;;;5073776;28;20055;-79
2024/01/18 04:42:40;;;;;;;23.30;13.38;;;;;;;;;;5074537;28;20549;-79
2024/01/18 04:45:07;;;;;;;23.77;13.98;;;;;;;;;;5078602;28;20037;-78
2024/01/18 04:47:32;;;;;;;26.40;15.40;;;;;;;;;;5078082;28;20113;-79
2024/01/18 04:49:57;;;;;;;32.13;16.10;;;;;;;;;;5074130;28;20473;-78
2024/01/18 04:52:23;;;;;;;24.23;14.20;;;;;;;;;;5072469;28;20036;-79
2024/01/18 04:54:48;;;;;;;25.13;14.93;;;;;;;;;;5083505;28;20032;-79
2024/01/18 04:57:13;;;;;;;23.13;13.90;;;;;;;;;;5072352;28;20028;-79
2024/01/18 04:59:38;;;;;;;24.90;13.10;;;;;;;;;;5074277;28;20107;-78
2024/01/18 05:02:03;;;;;;;25.13;14.20;;;;;;;;;;5076329;28;20459;-79
2024/01/18 05:04:29;;;;;;;26.90;16.00;;;;;;;;;;5079176;28;20051;-79
2024/01/18 05:06:54;;;;;;;26.67;14.95;;;;;;;;;;5073837;28;20039;-79
2024/01/18 05:09:19;;;;;;;22.90;13.10;;;;;;;;;;5073552;28;20021;-78
2024/01/18 05:11:45;;;;;;;23.63;13.57;;;;;;;;;;5072152;28;20513;-78
2024/01/18 05:14:10;;;;;;;23.25;13.88;;;;;;;;;;5079989;28;20055;-79
2024/01/18 05:16:39;;;;;;;26.23;16.17;;;;;;;;;;5075295;28;20036;-79
2024/01/18 05:19:04;;;;;;;24.80;14.45;;;;;;;;;;5079714;28;20036;-79
2024/01/18 05:21:30;;;;;;;24.15;14.25;;;;;;;;;;5073955;28;20024;-79
2024/01/18 05:23:55;;;;;;;49.20;20.00;;;;;;;;;;5083957;28;20028;-79
2024/01/18 05:26:20;;;;;;;110.10;41.72;;;;;;;;;;5074909;28;20420;-81
2024/01/18 05:28:46;;;;;;;51.50;24.88;;;;;;;;;;5074104;28;20724;-79
2024/01/18 05:31:11;;;;;;;32.03;17.25;;;;;;;;;;5077226;28;20043;-78
2024/01/18 05:33:36;;;;;;;29.20;16.90;;;;;;;;;;5076541;28;20028;-79
2024/01/18 05:36:02;;;;;;;25.55;15.30;;;;;;;;;;5089001;28;20040;-79
2024/01/18 05:38:30;;;;;;;26.27;15.38;;;;;;;;;;5087889;28;20029;-79
2024/01/18 05:40:55;;;;;;;25.10;14.77;;;;;;;;;;5089390;28;20066;-79
2024/01/18 05:43:20;;;;;;;25.75;15.40;;;;;;;;;;5101713;28;20047;-79
2024/01/18 05:45:45;;;;;;;25.73;14.05;;;;;;;;;;5085853;28;20059;-79
2024/01/18 05:48:11;;;;;;;25.30;16.20;;;;;;;;;;5083469;28;20036;-79
2024/01/18 05:50:36;;;;;;;25.67;14.88;;;;;;;;;;5100511;28;20059;-78
2024/01/18 05:53:01;;;;;;;27.67;16.52;;;;;;;;;;5095015;28;20032;-78
2024/01/18 05:55:26;;;;;;;26.20;13.88;;;;;;;;;;5081113;28;20032;-79
2024/01/18 05:57:51;;;;;;;27.63;16.50;;;;;;;;;;5077928;28;20128;-79
2024/01/18 06:00:17;;;;;;;23.92;15.02;;;;;;;;;;5081952;28;20498;-79
2024/01/18 06:02:42;;;;;;;25.85;14.15;;;;;;;;;;5080645;28;20028;-78
2024/01/18 06:05:07;;;;;;;26.67;15.25;;;;;;;;;;5079735;28;20074;-79
2024/01/18 06:07:33;;;;;;;28.00;15.57;;;;;;;;;;5076192;28;20046;-78
2024/01/18 06:09:59;;;;;;;26.33;15.95;;;;;;;;;;5074186;28;20099;-78
2024/01/18 06:12:24;;;;;;;25.45;15.15;;;;;;;;;;5077783;28;20500;-78
2024/01/18 06:14:49;;;;;;;28.20;15.87;;;;;;;;;;5078462;28;20032;-78
2024/01/18 06:17:15;;;;;;;29.83;15.85;;;;;;;;;;5072844;28;20614;-79
2024/01/18 06:19:40;;;;;;;30.00;17.45;;;;;;;;;;5078209;28;20115;-78
2024/01/18 06:22:05;;;;;;;30.67;18.08;;;;;;;;;;5078924;28;20032;-78
2024/01/18 06:24:30;;;;;;;28.93;16.27;;;;;;;;;;5077535;28;20070;-78
2024/01/18 06:26:56;;;;;;;30.40;16.57;;;;;;;;;;5072582;28;20143;-79
2024/01/18 06:29:26;;;;;;;28.98;15.63;;;;;;;;;;5071716;28;20059;-79
2024/01/18 06:31:51;;;;;;;28.33;16.52;;;;;;;;;;5072920;28;20067;-78
2024/01/18 06:34:17;;;;;;;33.80;17.98;;;;;;;;;;5076598;28;20139;-79
2024/01/18 06:36:42;;;;;;;30.83;16.35;;;;;;;;;;5072836;28;20035;-79
2024/01/18 06:39:08;;;;;;;29.65;15.65;;;;;;;;;;5071824;28;20530;-79
2024/01/18 06:41:33;;;;;;;30.02;16.63;;;;;;;;;;5073259;28;20024;-79
2024/01/18 06:43:59;;;;;;;28.92;16.38;;;;;;;;;;5076427;28;20035;-78
2024/01/18 06:46:24;;;;;;;30.42;16.75;;;;;;;;;;5072330;28;20097;-79
2024/01/18 06:48:57;;;;;;;30.55;16.25;;;;;;;;;;5072781;28;20404;-78
2024/01/18 06:51:22;;;;;;;27.23;15.57;;;;;;;;;;5073869;28;20032;-79
2024/01/18 06:53:47;;;;;;;33.60;16.70;;;;;;;;;;5080480;28;20404;-78
2024/01/18 06:56:13;;;;;;;27.90;14.95;;;;;;;;;;5073900;28;20036;-78
2024/01/18 06:58:39;;;;;;;27.13;16.43;;;;;;;;;;5076734;28;20039;-79
2024/01/18 07:01:04;;;;;;;26.98;14.32;;;;;;;;;;5092179;28;20039;-78
2024/01/18 07:03:30;;;;;;;27.98;15.25;;;;;;;;;;5074361;28;20060;-79
2024/01/18 07:05:56;;;;;;;31.75;17.50;;;;;;;;;;5078820;28;20531;-79
2024/01/18 07:08:22;;;;;;;30.20;16.75;;;;;;;;;;5078927;28;20090;-79
2024/01/18 07:10:48;;;;;;;30.30;18.13;;;;;;;;;;5075497;28;20127;-78
2024/01/18 07:13:13;;;;;;;29.92;17.27;;;;;;;;;;5074792;28;20115;-79
2024/01/18 07:15:38;;;;;;;28.60;15.63;;;;;;;;;;5076555;28;20099;-79
2024/01/18 07:18:04;;;;;;;32.00;18.10;;;;;;;;;;5084197;28;20040;-79
2024/01/18 07:20:29;;;;;;;31.35;17.23;;;;;;;;;;5072360;28;20035;-78
2024/01/18 07:22:55;;;;;;;28.70;15.93;;;;;;;;;;5071367;28;20047;-79
2024/01/18 07:25:20;;;;;;;32.75;17.83;;;;;;;;;;5084175;28;20028;-79
2024/01/18 07:27:45;;;;;;;31.00;17.77;;;;;;;;;;5073911;28;20032;-79
2024/01/18 07:30:13;;;;;;;33.77;18.20;;;;;;;;;;5072913;28;20118;-79
2024/01/18 07:32:39;;;;;;;32.25;16.92;;;;;;;;;;5074404;28;20040;-78
2024/01/18 07:35:04;;;;;;;32.08;17.55;;;;;;;;;;5075242;28;20036;-78
2024/01/18 07:37:29;;;;;;;34.55;18.08;;;;;;;;;;5076161;28;20078;-78
2024/01/18 07:39:54;;;;;;;31.13;18.03;;;;;;;;;;5075665;28;20024;-79
2024/01/18 07:42:19;;;;;;;32.22;17.33;;;;;;;;;;5077478;28;20460;-78
2024/01/18 07:44:46;;;;;;;32.85;18.48;;;;;;;;;;5078303;28;20066;-78
2024/01/18 07:47:11;;;;;;;37.83;17.73;;;;;;;;;;5072345;28;20357;-79
2024/01/18 07:49:37;;;;;;;31.45;17.75;;;;;;;;;;5074578;28;20033;-79
2024/01/18 07:52:03;;;;;;;31.43;16.63;;;;;;;;;;5072810;28;20447;-79
2024/01/18 07:54:28;;;;;;;32.73;16.97;;;;;;;;;;5074412;28;20086;-78
2024/01/18 07:56:53;;;;;;;33.80;17.95;;;;;;;;;;5075881;28;20048;-79
2024/01/18 07:59:20;;;;;;;31.23;18.50;;;;;;;;;;5074542;28;20025;-78
2024/01/18 08:01:45;;;;;;;29.67;16.40;;;;;;;;;;5072462;28;20103;-78
2024/01/18 08:04:10;;;;;;;34.10;18.10;;;;;;;;;;5076177;28;20101;-79
2024/01/18 08:06:35;;;;;;;28.67;16.88;;;;;;;;;;5069837;28;20085;-78
2024/01/18 08:09:01;;;;;;;32.38;17.40;;;;;;;;;;5076151;28;20029;-79
2024/01/18 08:11:26;;;;;;;33.10;18.17;;;;;;;;;;5071830;28;20385;-79
2024/01/18 08:13:51;;;;;;;32.25;18.33;;;;;;;;;;5072067;28;20135;-79
2024/01/18 08:16:17;;;;;;;29.98;16.90;;;;;;;;;;5069951;28;20139;-78
2024/01/18 08:18:42;;;;;;;32.13;18.35;;;;;;;;;;5077882;28;20043;-79
2024/01/18 08:21:07;;;;;;;31.35;16.70;;;;;;;;;;5073737;28;20032;-79
2024/01/18 08:23:32;;;;;;;27.13;16.52;;;;;;;;;;5078999;28;20028;-79
2024/01/18 08:25:57;;;;;;;33.15;17.88;;;;;;;;;;5080225;28;20078;-79
2024/01/18 08:28:23;;;;;;;36.00;19.43;;;;;;;;;;5071471;28;20598;-79
2024/01/18 08:30:48;;;;;;;28.95;15.95;;;;;;;;;;5071555;28;20105;-79
2024/01/18 08:33:14;;;;;;;27.88;15.95;;;;;;;;;;5075255;28;20043;-79
2024/01/18 08:35:39;;;;;;;28.05;16.90;;;;;;;;;;5075134;28;20037;-79
2024/01/18 08:38:04;;;;;;;30.98;17.73;;;;;;;;;;5071505;28;20036;-79
2024/01/18 08:40:30;;;;;;;29.77;17.20;;;;;;;;;;5071032;28;20499;-79
2024/01/18 08:42:56;;;;;;;32.95;18.10;;;;;;;;;;5073013;28;20035;-79
2024/01/18 08:45:22;;;;;;;32.20;17.73;;;;;;;;;;5076956;28;20028;-79
2024/01/18 08:47:47;;;;;;;31.85;16.58;;;;;;;;;;5076516;28;20051;-79
2024/01/18 08:50:15;;;;;;;26.58;16.13;;;;;;;;;;5078472;28;20032;-79
2024/01/18 08:52:40;;;;;;;27.85;16.17;;;;;;;;;;5075923;28;20034;-79
2024/01/18 08:55:06;;;;;;;35.50;17.52;;;;;;;;;;5082745;28;20119;-79
2024/01/18 08:57:31;;;;;;;31.15;17.38;;;;;;;;;;5077126;28;20107;-79
2024/01/18 08:59:56;;;;;;;27.52;14.40;;;;;;;;;;5075973;28;20033;-79
2024/01/18 09:02:22;;;;;;;26.33;16.13;;;;;;;;;;5078412;28;20040;-79
2024/01/18 09:04:47;;;;;;;25.90;14.18;;;;;;;;;;5077939;28;20024;-79
2024/01/18 09:07:12;;;;;;;24.58;15.05;;;;;;;;;;5074803;28;20485;-79
2024/01/18 09:09:37;;;;;;;28.35;16.25;;;;;;;;;;5080299;28;20032;-79
2024/01/18 09:12:02;;;;;;;23.65;15.38;;;;;;;;;;5076022;28;20036;-79
2024/01/18 09:14:28;;;;;;;30.60;17.17;;;;;;;;;;5080479;28;20036;-78
2024/01/18 09:16:53;;;;;;;24.83;15.68;;;;;;;;;;5074603;28;20032;-79
2024/01/18 09:19:20;;;;;;;29.77;16.30;;;;;;;;;;5080235;28;20039;-79
2024/01/18 09:21:46;;;;;;;28.38;16.73;;;;;;;;;;5086130;28;20086;-79
2024/01/18 09:24:12;;;;;;;29.73;17.27;;;;;;;;;;5079796;28;20036;-79
2024/01/18 09:26:37;;;;;;;28.35;15.35;;;;;;;;;;5073809;28;20131;-79
2024/01/18 09:29:03;;;;;;;28.90;16.13;;;;;;;;;;5073766;28;20025;-79
2024/01/18 09:31:28;;;;;;;27.70;15.85;;;;;;;;;;5074400;28;20488;-79
2024/01/18 09:33:53;;;;;;;27.92;15.93;;;;;;;;;;5075998;28;20495;-79
2024/01/18 09:36:19;;;;;;;30.42;16.77;;;;;;;;;;5074631;28;20055;-79
2024/01/18 09:38:44;;;;;;;27.65;14.50;;;;;;;;;;5077644;28;20500;-79
2024/01/18 09:41:09;;;;;;;25.85;14.70;;;;;;;;;;5076627;28;20050;-79
2024/01/18 09:43:39;;;;;;;27.58;15.43;;;;;;;;;;5074218;28;20021;-79
2024/01/18 09:46:06;;;;;;;22.52;14.02;;;;;;;;;;5076097;28;20034;-78
2024/01/18 09:48:32;;;;;;;29.10;16.35;;;;;;;;;;5079752;28;20036;-79
2024/01/18 09:50:57;;;;;;;23.02;14.15;;;;;;;;;;5077493;28;20131;-79
2024/01/18 09:53:22;;;;;;;28.63;14.60;;;;;;;;;;5090291;28;20060;-78
2024/01/18 09:55:49;;;;;;;27.25;14.50;;;;;;;;;;5075899;28;20500;-79
2024/01/18 09:58:14;;;;;;;23.17;13.52;;;;;;;;;;5073228;28;20055;-79
2024/01/18 10:00:42;;;;;;;28.15;14.57;;;;;;;;;;5073756;28;20519;-78
2024/01/18 10:03:07;;;;;;;23.95;14.25;;;;;;;;;;5076285;28;20122;-79
2024/01/18 10:05:32;;;;;;;29.50;14.93;;;;;;;;;;5082169;28;20083;-78
2024/01/18 10:07:57;;;;;;;31.38;16.63;;;;;;;;;;5073225;28;20473;-79
2024/01/18 10:10:23;;;;;;;26.00;14.80;;;;;;;;;;5074963;28;20033;-79
2024/01/18 10:12:48;;;;;;;24.80;15.57;;;;;;;;;;5072644;28;20059;-79
2024/01/18 10:15:28;;;;;;;25.65;14.95;;;;;;;;;;5074735;28;20048;-79
2024/01/18 10:17:53;;;;;;;29.80;15.98;;;;;;;;;;5074627;28;20088;-79
2024/01/18 10:20:18;;;;;;;25.23;15.80;;;;;;;;;;5073041;28;20040;-79
2024/01/18 10:22:45;;;;;;;25.35;14.35;;;;;;;;;;5072941;28;20032;-79
2024/01/18 10:25:12;;;;;;;25.73;15.32;;;;;;;;;;5075224;28;20762;-79
2024/01/18 10:27:39;;;;;;;29.02;16.50;;;;;;;;;;5073179;28;20043;-79
2024/01/18 10:30:04;;;;;;;26.73;15.98;;;;;;;;;;5072723;28;20047;-79
2024/01/18 10:32:32;;;;;;;23.85;14.82;;;;;;;;;;5075033;28;20024;-79
2024/01/18 10:34:58;;;;;;;27.00;16.80;;;;;;;;;;5080050;28;20111;-79
2024/01/18 10:37:23;;;;;;;25.83;15.30;;;;;;;;;;5076151;28;20116;-79
2024/01/18 10:39:48;;;;;;;29.45;16.70;;;;;;;;;;5075419;28;20020;-79
2024/01/18 10:42:13;;;;;;;26.00;15.88;;;;;;;;;;5077475;28;20043;-79
2024/01/18 10:44:45;;;;;;;24.40;14.25;;;;;;;;;;5077758;28;20036;-79
2024/01/18 10:47:11;;;;;;;29.92;16.98;;;;;;;;;;5072160;28;20066;-79
2024/01/18 10:49:37;;;;;;;27.70;15.95;;;;;;;;;;5078204;28;20066;-79
2024/01/18 10:52:03;;;;;;;28.08;16.42;;;;;;;;;;5071133;28;20560;-79
2024/01/18 10:54:30;;;;;;;27.90;15.15;;;;;;;;;;5080965;28;20028;-79
2024/01/18 10:56:56;;;;;;;27.83;15.73;;;;;;;;;;5079675;28;20021;-79
2024/01/18 10:59:21;;;;;;;32.03;16.55;;;;;;;;;;5073437;28;20032;-79
2024/01/18 11:01:47;;;;;;;30.75;16.73;;;;;;;;;;5075337;28;20029;-79
2024/01/18 11:04:12;;;;;;;28.52;16.17;;;;;;;;;;5072571;28;20522;-79
2024/01/18 11:06:38;;;;;;;28.60;16.55;;;;;;;;;;5076138;28;20048;-79
2024/01/18 11:09:03;;;;;;;28.63;16.50;;;;;;;;;;5074357;28;20465;-79
2024/01/18 11:11:29;;;;;;;32.88;18.02;;;;;;;;;;5077665;28;20082;-80
2024/01/18 11:13:54;;;;;;;29.63;17.92;;;;;;;;;;5074605;28;20112;-78
2024/01/18 11:16:20;;;;;;;30.27;18.55;;;;;;;;;;5078488;28;20031;-78
2024/01/18 11:18:51;;;;;;;28.60;17.15;;;;;;;;;;5090376;28;20410;-79
2024/01/18 11:21:16;;;;;;;28.77;17.40;;;;;;;;;;5082043;28;20034;-78
2024/01/18 11:23:41;;;;;;;28.85;17.00;;;;;;;;;;5092131;28;20040;-78
2024/01/18 11:26:07;;;;;;;27.95;16.33;;;;;;;;;;5095833;28;20039;-79
2024/01/18 11:28:33;;;;;;;29.05;16.92;;;;;;;;;;5095348;28;20403;-78
2024/01/18 11:31:00;;;;;;;30.00;16.67;;;;;;;;;;5101086;28;20063;-78
2024/01/18 11:33:25;;;;;;;31.30;19.65;;;;;;;;;;5095124;28;20036;-76
2024/01/18 11:35:51;;;;;;;29.63;17.02;;;;;;;;;;5091295;28;20039;-76
2024/01/18 11:38:20;;;;;;;30.92;18.77;;;;;;;;;;5095909;28;20036;-77
2024/01/18 11:40:46;;;;;;;28.25;18.33;;;;;;;;;;5095130;28;20038;-76
2024/01/18 11:43:12;;;;;;;30.85;19.10;;;;;;;;;;5092467;28;20043;-76
2024/01/18 11:45:37;;;;;;;35.20;18.40;;;;;;;;;;5092270;28;20503;-77
2024/01/18 11:48:03;;;;;;;31.80;19.15;;;;;;;;;;5085456;28;20028;-76
2024/01/18 11:50:28;;;;;;;32.08;16.55;;;;;;;;;;5083237;28;20456;-77
2024/01/18 11:52:54;;;;;;;34.13;19.27;;;;;;;;;;5086889;28;20082;-76
2024/01/18 11:55:21;;;;;;;30.10;18.20;;;;;;;;;;5074101;28;20041;-77
2024/01/18 11:57:47;;;;;;;29.88;17.17;;;;;;;;;;5073384;28;20044;-76
2024/01/18 12:00:13;;;;;;;28.50;17.63;;;;;;;;;;5067941;28;20029;-77
2024/01/18 12:02:39;;;;;;;31.52;19.50;;;;;;;;;;5072208;28;20059;-77
2024/01/18 12:05:05;;;;;;;27.50;17.85;;;;;;;;;;5071924;28;20404;-77
2024/01/18 12:07:30;;;;;;;27.92;16.83;;;;;;;;;;5077072;28;20021;-76
2024/01/18 12:09:57;;;;;;;31.73;18.65;;;;;;;;;;5080848;28;20036;-77
2024/01/18 12:12:22;;;;;;;25.73;13.88;;;;;;;;;;5074105;28;20485;-76
2024/01/18 12:14:47;;;;;;;25.67;13.02;;;;;;;;;;5077668;28;20109;-76
2024/01/18 12:17:14;;;;;;;25.00;14.50;;;;;;;;;;5069473;28;20382;-76
2024/01/18 12:19:40;;;;;;;24.50;16.00;;;;;;;;;;5069224;28;20060;-77
2024/01/18 12:22:09;;;;;;;26.75;15.40;;;;;;;;;;5074443;28;20548;-77
2024/01/18 12:24:35;;;;;;;27.35;16.67;;;;;;;;;;5083275;28;20020;-77
2024/01/18 12:27:02;;;;;;;27.02;16.35;;;;;;;;;;5080373;28;20069;-77
2024/01/18 12:29:27;;;;;;;26.40;16.48;;;;;;;;;;5077643;28;20158;-76
2024/01/18 12:31:54;;;;;;;24.33;14.68;;;;;;;;;;5073271;28;20104;-77
2024/01/18 12:34:22;;;;;;;27.55;15.95;;;;;;;;;;5075364;28;20032;-77
2024/01/18 12:36:47;;;;;;;25.70;14.63;;;;;;;;;;5077248;28;20115;-76
2024/01/18 12:39:13;;;;;;;26.73;14.43;;;;;;;;;;5072293;28;20449;-77
2024/01/18 12:41:38;;;;;;;24.48;13.57;;;;;;;;;;5072832;28;20028;-77
2024/01/18 12:44:07;;;;;;;25.60;14.30;;;;;;;;;;5073393;28;20551;-77
2024/01/18 12:46:34;;;;;;;24.70;15.40;;;;;;;;;;5083135;28;20035;-77
2024/01/18 12:48:59;;;;;;;30.05;16.70;;;;;;;;;;5078610;28;20039;-76
2024/01/18 12:51:26;;;;;;;28.63;17.20;;;;;;;;;;5075571;28;20438;-77
2024/01/18 12:53:51;;;;;;;24.25;13.98;;;;;;;;;;5077770;28;20123;-76
2024/01/18 12:56:17;;;;;;;22.45;14.40;;;;;;;;;;5079764;28;20123;-77
2024/01/18 12:58:42;;;;;;;27.95;16.13;;;;;;;;;;5076729;28;20058;-77
2024/01/18 13:01:07;;;;;;;25.70;15.20;;;;;;;;;;5082224;28;20127;-77
2024/01/18 13:03:33;;;;;;;26.38;15.25;;;;;;;;;;5079252;28;20024;-77
2024/01/18 13:05:58;;;;;;;21.42;12.90;;;;;;;;;;5080874;28;20036;-77
2024/01/18 13:08:23;;;;;;;24.65;14.85;;;;;;;;;;5081799;28;20081;-77
2024/01/18 13:10:48;;;;;;;34.55;18.65;;;;;;;;;;5081289;28;20146;-77
2024/01/18 13:13:13;;;;;;;28.23;18.42;;;;;;;;;;5074255;28;20029;-76
2024/01/18 13:15:39;;;;;;;29.63;17.65;;;;;;;;;;5080674;28;20066;-77
2024/01/18 13:18:09;;;;;;;29.15;19.20;;;;;;;;;;5088722;28;20040;-77
2024/01/18 13:20:34;;;;;;;34.15;19.33;;;;;;;;;;5077450;28;20499;-76
2024/01/18 13:22:59;;;;;;;32.50;19.45;;;;;;;;;;5072075;28;20033;-76
2024/01/18 13:25:24;;;;;;;29.45;17.60;;;;;;;;;;5076661;28;20031;-77
2024/01/18 13:27:49;;;;;;;28.20;17.88;;;;;;;;;;5076063;28;20049;-77
2024/01/18 13:30:15;;;;;;;38.70;22.88;;;;;;;;;;5070298;28;20060;-77
2024/01/18 13:32:40;;;;;;;34.85;17.75;;;;;;;;;;5077951;28;20058;-77
2024/01/18 13:35:05;;;;;;;30.30;17.27;;;;;;;;;;5078393;28;20040;-77
2024/01/18 13:37:30;;;;;;;32.03;18.80;;;;;;;;;;5077016;28;20058;-77
2024/01/18 13:39:55;;;;;;;27.30;17.77;;;;;;;;;;5071042;28;20119;-77
2024/01/18 13:42:21;;;;;;;30.17;17.40;;;;;;;;;;5075749;28;20020;-77
2024/01/18 13:44:46;;;;;;;28.00;16.48;;;;;;;;;;5076847;28;20492;-76
2024/01/18 13:47:11;;;;;;;25.45;16.45;;;;;;;;;;5072880;28;20024;-77
2024/01/18 13:49:37;;;;;;;32.55;16.77;;;;;;;;;;5073405;28;20499;-77
2024/01/18 13:52:02;;;;;;;30.67;17.05;;;;;;;;;;5073736;28;20039;-77
2024/01/18 13:54:28;;;;;;;26.08;15.32;;;;;;;;;;5077512;28;20024;-77
2024/01/18 13:56:53;;;;;;;23.70;14.00;;;;;;;;;;5079968;28;20021;-76
2024/01/18 13:59:18;;;;;;;23.58;12.77;;;;;;;;;;5069573;28;20832;-77
2024/01/18 14:01:43;;;;;;;24.98;15.00;;;;;;;;;;5071288;28;20539;-77
2024/01/18 14:04:08;;;;;;;23.45;13.35;;;;;;;;;;5076813;28;20035;-77
2024/01/18 14:06:34;;;;;;;24.33;14.20;;;;;;;;;;5080259;28;20104;-77
2024/01/18 14:08:59;;;;;;;23.95;13.30;;;;;;;;;;5078023;28;20063;-77